sensor_id;sensor_type;location;lat;lon;timestamp;pressure;altitude;pressure_sealevel;temperature;humidity
11017;BME280;54687;50.800;6.772;2022-12-13T00:00:55;61227.06;;;-144.06;65.04
11017;BME280;54687;50.800;6.772;2022-12-13T00:03:22;61185.16;;;-144.06;65.28
11017;BME280;54687;50.800;6.772;2022-12-13T00:05:49;61206.09;;;-144.06;65.45
11017;BME280;54687;50.800;6.772;2022-12-13T00:08:15;61222.88;;;-144.06;65.57
11017;BME280;54687;50.800;6.772;2022-12-13T00:10:43;61256.41;;;-144.06;65.04
11017;BME280;54687;50.800;6.772;2022-12-13T00:13:10;61243.84;;;-144.06;65.68
11017;BME280;54687;50.800;6.772;2022-12-13T00:15:36;61201.91;;;-144.06;65.49
11017;BME280;54687;50.800;6.772;2022-12-13T00:18:03;61185.16;;;-144.06;65.19
11017;BME280;54687;50.800;6.772;2022-12-13T00:20:29;61197.72;;;-144.06;65.55
11017;BME280;54687;50.800;6.772;2022-12-13T00:22:56;61218.69;;;-144.06;65.43
11017;BME280;54687;50.800;6.772;2022-12-13T00:25:22;61208.22;;;-144.06;65.26
11017;BME280;54687;50.800;6.772;2022-12-13T00:27:50;61201.91;;;-144.06;65.80
11017;BME280;54687;50.800;6.772;2022-12-13T00:30:17;61235.47;;;-144.06;65.46
11017;BME280;54687;50.800;6.772;2022-12-13T00:32:43;61235.47;;;-144.06;65.43
11017;BME280;54687;50.800;6.772;2022-12-13T00:35:10;61220.78;;;-144.06;65.68
11017;BME280;54687;50.800;6.772;2022-12-13T00:37:37;61210.31;;;-144.06;65.60
11017;BME280;54687;50.800;6.772;2022-12-13T00:40:04;61195.63;;;-144.06;65.77
11017;BME280;54687;50.800;6.772;2022-12-13T00:42:31;61193.53;;;-144.06;65.51
11017;BME280;54687;50.800;6.772;2022-12-13T00:44:59;61216.59;;;-144.06;65.76
11017;BME280;54687;50.800;6.772;2022-12-13T00:47:25;61214.50;;;-144.06;65.89
11017;BME280;54687;50.800;6.772;2022-12-13T00:49:52;61199.81;;;-144.06;65.64
11017;BME280;54687;50.800;6.772;2022-12-13T00:52:18;61197.72;;;-144.06;65.73
11017;BME280;54687;50.800;6.772;2022-12-13T00:54:45;61201.91;;;-144.06;66.12
11017;BME280;54687;50.800;6.772;2022-12-13T00:57:12;61197.72;;;-144.06;65.99
11017;BME280;54687;50.800;6.772;2022-12-13T00:59:38;61227.06;;;-144.06;65.91
11017;BME280;54687;50.800;6.772;2022-12-13T01:02:06;61237.56;;;-144.06;65.73
11017;BME280;54687;50.800;6.772;2022-12-13T01:04:33;61235.47;;;-144.06;65.26
11017;BME280;54687;50.800;6.772;2022-12-13T01:06:59;61222.88;;;-144.06;65.06
11017;BME280;54687;50.800;6.772;2022-12-13T01:09:26;61206.09;;;-144.06;65.04
11017;BME280;54687;50.800;6.772;2022-12-13T01:11:56;61193.53;;;-144.06;65.21
11017;BME280;54687;50.800;6.772;2022-12-13T01:14:23;61206.09;;;-144.06;65.66
11017;BME280;54687;50.800;6.772;2022-12-13T01:16:50;61212.41;;;-144.06;65.34
11017;BME280;54687;50.800;6.772;2022-12-13T01:19:21;61256.41;;;-144.06;65.72
11017;BME280;54687;50.800;6.772;2022-12-13T01:21:48;61214.50;;;-144.06;65.54
11017;BME280;54687;50.800;6.772;2022-12-13T01:24:14;61227.06;;;-144.06;65.28
11017;BME280;54687;50.800;6.772;2022-12-13T01:26:45;61237.56;;;-144.06;65.97
11017;BME280;54687;50.800;6.772;2022-12-13T01:29:11;61220.78;;;-144.06;65.93
11017;BME280;54687;50.800;6.772;2022-12-13T01:31:38;61231.25;;;-144.06;65.90
11017;BME280;54687;50.800;6.772;2022-12-13T01:34:06;61218.69;;;-144.06;66.05
11017;BME280;54687;50.800;6.772;2022-12-13T01:36:36;61254.31;;;-144.06;65.79
11017;BME280;54687;50.800;6.772;2022-12-13T01:39:03;61193.53;;;-144.06;66.05
11017;BME280;54687;50.800;6.772;2022-12-13T01:41:31;61220.78;;;-144.06;66.14
11017;BME280;54687;50.800;6.772;2022-12-13T01:43:59;61210.31;;;-144.06;66.50
11017;BME280;54687;50.800;6.772;2022-12-13T01:46:28;61201.91;;;-144.06;66.08
11017;BME280;54687;50.800;6.772;2022-12-13T01:48:59;61216.59;;;-144.06;66.19
11017;BME280;54687;50.800;6.772;2022-12-13T01:51:31;61172.56;;;-144.06;66.03
11017;BME280;54687;50.800;6.772;2022-12-13T01:54:02;61248.03;;;-144.06;65.99
11017;BME280;54687;50.800;6.772;2022-12-13T01:56:34;61231.25;;;-144.06;65.84
11017;BME280;54687;50.800;6.772;2022-12-13T01:59:04;61227.06;;;-144.06;66.05
11017;BME280;54687;50.800;6.772;2022-12-13T02:01:32;61210.31;;;-144.06;66.38
11017;BME280;54687;50.800;6.772;2022-12-13T02:03:59;61172.56;;;-144.06;65.97
11017;BME280;54687;50.800;6.772;2022-12-13T02:06:30;61206.09;;;-144.06;65.81
11017;BME280;54687;50.800;6.772;2022-12-13T02:09:01;61277.38;;;-144.06;66.03
11017;BME280;54687;50.800;6.772;2022-12-13T02:11:28;61252.22;;;-144.06;66.00
11017;BME280;54687;50.800;6.772;2022-12-13T02:13:55;61201.91;;;-144.06;65.97
11017;BME280;54687;50.800;6.772;2022-12-13T02:16:40;61224.97;;;-144.06;66.34
11017;BME280;54687;50.800;6.772;2022-12-13T02:19:45;61199.81;;;-144.06;66.44
11017;BME280;54687;50.800;6.772;2022-12-13T02:22:32;61214.50;;;-144.06;66.07
11017;BME280;54687;50.800;6.772;2022-12-13T02:25:22;61216.59;;;-144.06;66.03
11017;BME280;54687;50.800;6.772;2022-12-13T02:28:08;61227.06;;;-144.06;65.98
11017;BME280;54687;50.800;6.772;2022-12-13T02:30:41;61210.31;;;-144.06;65.99
11017;BME280;54687;50.800;6.772;2022-12-13T02:33:27;61204.00;;;-144.06;66.35
11017;BME280;54687;50.800;6.772;2022-12-13T02:36:06;61201.91;;;-144.06;66.14
11017;BME280;54687;50.800;6.772;2022-12-13T02:38:38;61208.22;;;-144.06;65.68
11017;BME280;54687;50.800;6.772;2022-12-13T02:41:16;61229.16;;;-144.06;66.14
11017;BME280;54687;50.800;6.772;2022-12-13T02:43:47;61195.63;;;-144.06;66.23
11017;BME280;54687;50.800;6.772;2022-12-13T02:46:19;61206.09;;;-144.06;66.60
11017;BME280;54687;50.800;6.772;2022-12-13T02:48:48;61216.59;;;-144.06;66.53
11017;BME280;54687;50.800;6.772;2022-12-13T02:51:17;61227.06;;;-144.06;66.73
11017;BME280;54687;50.800;6.772;2022-12-13T02:53:45;61231.25;;;-144.06;66.44
11017;BME280;54687;50.800;6.772;2022-12-13T02:56:12;61214.50;;;-144.06;66.79
11017;BME280;54687;50.800;6.772;2022-12-13T02:58:41;61201.91;;;-144.06;66.61
11017;BME280;54687;50.800;6.772;2022-12-13T03:01:22;61208.22;;;-144.06;66.76
11017;BME280;54687;50.800;6.772;2022-12-13T03:04:00;61229.16;;;-144.06;66.67
11017;BME280;54687;50.800;6.772;2022-12-13T03:06:40;61201.91;;;-144.06;66.73
11017;BME280;54687;50.800;6.772;2022-12-13T03:09:20;61193.53;;;-144.06;66.78
11017;BME280;54687;50.800;6.772;2022-12-13T03:12:11;61220.78;;;-144.06;66.64
11017;BME280;54687;50.800;6.772;2022-12-13T03:15:00;61248.03;;;-144.06;66.61
11017;BME280;54687;50.800;6.772;2022-12-13T03:17:35;61178.84;;;-144.06;66.47
11017;BME280;54687;50.800;6.772;2022-12-13T03:20:03;61224.97;;;-144.06;66.37
11017;BME280;54687;50.800;6.772;2022-12-13T03:22:32;61231.25;;;-144.06;66.85
11017;BME280;54687;50.800;6.772;2022-12-13T03:24:58;61210.31;;;-144.06;66.89
11017;BME280;54687;50.800;6.772;2022-12-13T03:27:25;61235.47;;;-144.06;67.05
11017;BME280;54687;50.800;6.772;2022-12-13T03:29:52;61222.88;;;-144.06;66.71
11017;BME280;54687;50.800;6.772;2022-12-13T03:32:18;61224.97;;;-144.06;66.90
11017;BME280;54687;50.800;6.772;2022-12-13T03:34:46;61245.94;;;-144.06;66.94
11017;BME280;54687;50.800;6.772;2022-12-13T03:37:13;61201.91;;;-144.06;66.95
11017;BME280;54687;50.800;6.772;2022-12-13T03:39:40;61208.22;;;-144.06;66.80
11017;BME280;54687;50.800;6.772;2022-12-13T03:42:07;61235.47;;;-144.06;66.15
11017;BME280;54687;50.800;6.772;2022-12-13T03:44:33;61204.00;;;-144.06;66.27
11017;BME280;54687;50.800;6.772;2022-12-13T03:47:00;61214.50;;;-144.06;65.97
11017;BME280;54687;50.800;6.772;2022-12-13T03:49:26;61231.25;;;-144.06;66.05
11017;BME280;54687;50.800;6.772;2022-12-13T03:51:54;61227.06;;;-144.06;65.88
11017;BME280;54687;50.800;6.772;2022-12-13T03:54:21;61222.88;;;-144.06;66.19
11017;BME280;54687;50.800;6.772;2022-12-13T03:56:47;61201.91;;;-144.06;66.34
11017;BME280;54687;50.800;6.772;2022-12-13T03:59:14;61197.72;;;-144.06;66.28
11017;BME280;54687;50.800;6.772;2022-12-13T04:01:40;61206.09;;;-144.06;65.67
11017;BME280;54687;50.800;6.772;2022-12-13T04:04:07;61235.47;;;-144.06;65.78
11017;BME280;54687;50.800;6.772;2022-12-13T04:06:33;61187.25;;;-144.06;65.35
11017;BME280;54687;50.800;6.772;2022-12-13T04:09:01;61248.03;;;-144.06;65.78
11017;BME280;54687;50.800;6.772;2022-12-13T04:11:28;61222.88;;;-144.06;65.63
11017;BME280;54687;50.800;6.772;2022-12-13T04:14:12;61233.38;;;-144.06;65.35
11017;BME280;54687;50.800;6.772;2022-12-13T04:16:39;61216.59;;;-144.06;65.37
11017;BME280;54687;50.800;6.772;2022-12-13T04:19:06;61252.22;;;-144.06;65.16
11017;BME280;54687;50.800;6.772;2022-12-13T04:21:32;61208.22;;;-144.06;64.84
11017;BME280;54687;50.800;6.772;2022-12-13T04:23:59;61227.06;;;-144.06;64.93
11017;BME280;54687;50.800;6.772;2022-12-13T04:26:27;61193.53;;;-144.06;64.92
11017;BME280;54687;50.800;6.772;2022-12-13T04:28:54;61183.06;;;-144.06;65.04
11017;BME280;54687;50.800;6.772;2022-12-13T04:31:20;61201.91;;;-144.06;64.79
11017;BME280;54687;50.800;6.772;2022-12-13T04:33:47;61222.88;;;-144.06;64.50
11017;BME280;54687;50.800;6.772;2022-12-13T04:36:14;61218.69;;;-144.06;64.39
11017;BME280;54687;50.800;6.772;2022-12-13T04:38:44;61229.16;;;-144.06;64.52
11017;BME280;54687;50.800;6.772;2022-12-13T04:41:13;61224.97;;;-144.06;63.89
11017;BME280;54687;50.800;6.772;2022-12-13T04:43:42;61193.53;;;-144.06;64.01
11017;BME280;54687;50.800;6.772;2022-12-13T04:46:09;61235.47;;;-144.06;64.05
11017;BME280;54687;50.800;6.772;2022-12-13T04:48:35;61201.91;;;-144.06;63.85
11017;BME280;54687;50.800;6.772;2022-12-13T04:51:02;61227.06;;;-144.06;63.87
11017;BME280;54687;50.800;6.772;2022-12-13T04:53:29;61210.31;;;-144.06;64.09
11017;BME280;54687;50.800;6.772;2022-12-13T04:55:55;61239.66;;;-144.06;63.95
11017;BME280;54687;50.800;6.772;2022-12-13T04:58:22;61222.88;;;-144.06;63.92
11017;BME280;54687;50.800;6.772;2022-12-13T05:00:50;61210.31;;;-144.06;64.45
11017;BME280;54687;50.800;6.772;2022-12-13T05:03:16;61206.09;;;-144.06;64.72
11017;BME280;54687;50.800;6.772;2022-12-13T05:05:43;61210.31;;;-144.06;64.50
11017;BME280;54687;50.800;6.772;2022-12-13T05:08:09;61214.50;;;-144.06;64.62
11017;BME280;54687;50.800;6.772;2022-12-13T05:10:37;61233.38;;;-144.06;64.87
11017;BME280;54687;50.800;6.772;2022-12-13T05:13:04;61237.56;;;-144.06;64.90
11017;BME280;54687;50.800;6.772;2022-12-13T05:15:31;61193.53;;;-144.06;65.12
11017;BME280;54687;50.800;6.772;2022-12-13T05:17:59;61210.31;;;-144.06;65.11
11017;BME280;54687;50.800;6.772;2022-12-13T05:20:27;61178.84;;;-144.06;64.53
11017;BME280;54687;50.800;6.772;2022-12-13T05:22:55;61218.69;;;-144.06;64.61
11017;BME280;54687;50.800;6.772;2022-12-13T05:25:22;61176.75;;;-144.06;64.87
11017;BME280;54687;50.800;6.772;2022-12-13T05:27:49;61189.34;;;-144.06;64.79
11017;BME280;54687;50.800;6.772;2022-12-13T05:30:16;61235.47;;;-144.06;65.04
11017;BME280;54687;50.800;6.772;2022-12-13T05:32:43;61227.06;;;-144.06;64.96
11017;BME280;54687;50.800;6.772;2022-12-13T05:35:11;61212.41;;;-144.06;65.08
11017;BME280;54687;50.800;6.772;2022-12-13T05:37:38;61208.22;;;-144.06;64.91
11017;BME280;54687;50.800;6.772;2022-12-13T05:40:06;61239.66;;;-144.06;65.14
11017;BME280;54687;50.800;6.772;2022-12-13T05:42:32;61212.41;;;-144.06;65.36
11017;BME280;54687;50.800;6.772;2022-12-13T05:44:59;61191.44;;;-144.06;64.92
11017;BME280;54687;50.800;6.772;2022-12-13T05:47:26;61220.78;;;-144.06;65.31
11017;BME280;54687;50.800;6.772;2022-12-13T05:49:52;61210.31;;;-144.06;65.26
11017;BME280;54687;50.800;6.772;2022-12-13T05:52:21;61218.69;;;-144.06;65.13
11017;BME280;54687;50.800;6.772;2022-12-13T05:54:47;61216.59;;;-144.06;65.42
11017;BME280;54687;50.800;6.772;2022-12-13T05:57:14;61218.69;;;-144.06;65.60
11017;BME280;54687;50.800;6.772;2022-12-13T05:59:40;61206.09;;;-144.06;65.47
11017;BME280;54687;50.800;6.772;2022-12-13T06:02:07;61256.41;;;-144.06;65.59
11017;BME280;54687;50.800;6.772;2022-12-13T06:04:33;61235.47;;;-144.06;65.26
11017;BME280;54687;50.800;6.772;2022-12-13T06:07:00;61201.91;;;-144.06;65.73
11017;BME280;54687;50.800;6.772;2022-12-13T06:09:28;61227.06;;;-144.06;65.67
11017;BME280;54687;50.800;6.772;2022-12-13T06:11:55;61243.84;;;-144.06;65.73
11017;BME280;54687;50.800;6.772;2022-12-13T06:14:21;61254.31;;;-144.06;65.65
11017;BME280;54687;50.800;6.772;2022-12-13T06:16:48;61197.72;;;-144.06;65.26
11017;BME280;54687;50.800;6.772;2022-12-13T06:19:15;61250.13;;;-144.06;65.73
11017;BME280;54687;50.800;6.772;2022-12-13T06:21:41;61220.78;;;-144.06;65.94
11017;BME280;54687;50.800;6.772;2022-12-13T06:24:08;61256.41;;;-144.06;65.60
11017;BME280;54687;50.800;6.772;2022-12-13T06:26:36;61224.97;;;-144.06;65.55
11017;BME280;54687;50.800;6.772;2022-12-13T06:29:02;61235.47;;;-144.06;65.70
11017;BME280;54687;50.800;6.772;2022-12-13T06:31:29;61239.66;;;-144.06;65.90
11017;BME280;54687;50.800;6.772;2022-12-13T06:34:00;61243.84;;;-144.06;65.43
11017;BME280;54687;50.800;6.772;2022-12-13T06:36:26;61180.97;;;-144.06;65.73
11017;BME280;54687;50.800;6.772;2022-12-13T06:38:53;61189.34;;;-144.06;65.95
11017;BME280;54687;50.800;6.772;2022-12-13T06:41:19;61239.66;;;-144.06;65.73
11017;BME280;54687;50.800;6.772;2022-12-13T06:43:47;61233.38;;;-144.06;65.77
11017;BME280;54687;50.800;6.772;2022-12-13T06:46:14;61229.16;;;-144.06;65.71
11017;BME280;54687;50.800;6.772;2022-12-13T06:48:41;61208.22;;;-144.06;66.05
11017;BME280;54687;50.800;6.772;2022-12-13T06:51:08;61189.34;;;-144.06;66.10
11017;BME280;54687;50.800;6.772;2022-12-13T06:53:35;61157.91;;;-144.06;66.00
11017;BME280;54687;50.800;6.772;2022-12-13T06:56:03;61218.69;;;-144.06;65.95
11017;BME280;54687;50.800;6.772;2022-12-13T06:58:30;61168.38;;;-144.06;66.09
11017;BME280;54687;50.800;6.772;2022-12-13T07:01:02;61224.97;;;-144.06;66.09
11017;BME280;54687;50.800;6.772;2022-12-13T07:03:29;61193.53;;;-144.06;66.02
11017;BME280;54687;50.800;6.772;2022-12-13T07:05:56;61197.72;;;-144.06;65.80
11017;BME280;54687;50.800;6.772;2022-12-13T07:08:23;61216.59;;;-144.06;65.68
11017;BME280;54687;50.800;6.772;2022-12-13T07:10:50;61176.75;;;-144.06;65.59
11017;BME280;54687;50.800;6.772;2022-12-13T07:13:18;61239.66;;;-144.06;65.54
11017;BME280;54687;50.800;6.772;2022-12-13T07:15:45;61222.88;;;-144.06;65.90
11017;BME280;54687;50.800;6.772;2022-12-13T07:18:13;61193.53;;;-144.06;65.59
11017;BME280;54687;50.800;6.772;2022-12-13T07:20:40;61199.81;;;-144.06;65.46
11017;BME280;54687;50.800;6.772;2022-12-13T07:23:07;61193.53;;;-144.06;65.62
11017;BME280;54687;50.800;6.772;2022-12-13T07:25:34;61218.69;;;-144.06;65.52
11017;BME280;54687;50.800;6.772;2022-12-13T07:28:02;61250.13;;;-144.06;65.43
11017;BME280;54687;50.800;6.772;2022-12-13T07:30:31;61212.41;;;-144.06;65.55
11017;BME280;54687;50.800;6.772;2022-12-13T07:32:59;61264.81;;;-144.06;65.21
11017;BME280;54687;50.800;6.772;2022-12-13T07:35:27;61201.91;;;-144.06;65.14
11017;BME280;54687;50.800;6.772;2022-12-13T07:37:54;61214.50;;;-144.06;65.35
11017;BME280;54687;50.800;6.772;2022-12-13T07:40:21;61218.69;;;-144.06;65.10
11017;BME280;54687;50.800;6.772;2022-12-13T07:42:50;61201.91;;;-144.06;65.04
11017;BME280;54687;50.800;6.772;2022-12-13T07:45:17;61239.66;;;-144.06;64.65
11017;BME280;54687;50.800;6.772;2022-12-13T07:47:43;61235.47;;;-144.06;64.62
11017;BME280;54687;50.800;6.772;2022-12-13T07:50:10;61248.03;;;-144.06;64.60
11017;BME280;54687;50.800;6.772;2022-12-13T07:52:38;61227.06;;;-144.06;64.51
11017;BME280;54687;50.800;6.772;2022-12-13T07:55:05;61208.22;;;-144.06;64.28
11017;BME280;54687;50.800;6.772;2022-12-13T07:57:33;61193.53;;;-144.06;64.56
11017;BME280;54687;50.800;6.772;2022-12-13T07:59:59;61193.53;;;-144.06;64.34
11017;BME280;54687;50.800;6.772;2022-12-13T08:02:28;61227.06;;;-144.06;64.73
11017;BME280;54687;50.800;6.772;2022-12-13T08:04:54;61222.88;;;-144.06;64.62
11017;BME280;54687;50.800;6.772;2022-12-13T08:07:21;61201.91;;;-144.06;64.35
11017;BME280;54687;50.800;6.772;2022-12-13T08:09:49;61204.00;;;-144.06;64.38
11017;BME280;54687;50.800;6.772;2022-12-13T08:12:15;61193.53;;;-144.06;64.06
11017;BME280;54687;50.800;6.772;2022-12-13T08:14:42;61208.22;;;-144.06;63.96
11017;BME280;54687;50.800;6.772;2022-12-13T08:17:09;61201.91;;;-144.06;64.24
11017;BME280;54687;50.800;6.772;2022-12-13T08:19:35;61224.97;;;-144.06;63.99
11017;BME280;54687;50.800;6.772;2022-12-13T08:22:02;61239.66;;;-144.06;64.31
11017;BME280;54687;50.800;6.772;2022-12-13T08:24:29;61187.25;;;-144.06;64.23
11017;BME280;54687;50.800;6.772;2022-12-13T08:26:59;61197.72;;;-144.06;64.19
11017;BME280;54687;50.800;6.772;2022-12-13T08:29:27;61214.50;;;-144.06;64.21
11017;BME280;54687;50.800;6.772;2022-12-13T08:31:53;61227.06;;;-144.06;63.86
11017;BME280;54687;50.800;6.772;2022-12-13T08:34:20;61187.25;;;-144.06;63.57
11017;BME280;54687;50.800;6.772;2022-12-13T08:36:47;61206.09;;;-144.06;63.33
11017;BME280;54687;50.800;6.772;2022-12-13T08:39:13;61210.31;;;-144.06;63.54
11017;BME280;54687;50.800;6.772;2022-12-13T08:41:40;61235.47;;;-144.06;63.58
11017;BME280;54687;50.800;6.772;2022-12-13T08:44:08;61229.16;;;-144.06;63.31
11017;BME280;54687;50.800;6.772;2022-12-13T08:46:35;61201.91;;;-144.06;63.45
11017;BME280;54687;50.800;6.772;2022-12-13T08:49:02;61210.31;;;-144.06;63.25
11017;BME280;54687;50.800;6.772;2022-12-13T08:51:28;61229.16;;;-144.06;62.65
11017;BME280;54687;50.800;6.772;2022-12-13T08:53:55;61214.50;;;-144.06;62.76
11017;BME280;54687;50.800;6.772;2022-12-13T08:56:22;61176.75;;;-144.06;62.83
11017;BME280;54687;50.800;6.772;2022-12-13T08:58:49;61164.19;;;-144.06;62.76
11017;BME280;54687;50.800;6.772;2022-12-13T09:01:18;61212.41;;;-144.06;62.30
11017;BME280;54687;50.800;6.772;2022-12-13T09:03:44;61189.34;;;-144.06;62.44
11017;BME280;54687;50.800;6.772;2022-12-13T09:06:13;61239.66;;;-144.06;61.63
11017;BME280;54687;50.800;6.772;2022-12-13T09:08:41;61206.09;;;-144.06;61.71
11017;BME280;54687;50.800;6.772;2022-12-13T09:11:09;61216.59;;;-144.06;61.30
11017;BME280;54687;50.800;6.772;2022-12-13T09:13:37;61260.63;;;-144.06;60.98
11017;BME280;54687;50.800;6.772;2022-12-13T09:16:05;61174.66;;;-144.06;60.87
11017;BME280;54687;50.800;6.772;2022-12-13T09:18:34;61243.84;;;-144.06;61.18
11017;BME280;54687;50.800;6.772;2022-12-13T09:21:04;61214.50;;;-144.06;60.82
11017;BME280;54687;50.800;6.772;2022-12-13T09:23:31;61227.06;;;-144.06;59.83
11017;BME280;54687;50.800;6.772;2022-12-13T09:25:59;61174.66;;;-144.06;60.42
11017;BME280;54687;50.800;6.772;2022-12-13T09:28:26;61206.09;;;-144.06;60.23
11017;BME280;54687;50.800;6.772;2022-12-13T09:30:53;61176.75;;;-144.06;59.52
11017;BME280;54687;50.800;6.772;2022-12-13T09:33:20;61193.53;;;-144.06;59.38
11017;BME280;54687;50.800;6.772;2022-12-13T09:35:49;61256.41;;;-144.06;59.28
11017;BME280;54687;50.800;6.772;2022-12-13T09:38:16;61231.25;;;-144.06;58.94
11017;BME280;54687;50.800;6.772;2022-12-13T09:40:44;61235.47;;;-144.06;58.61
11017;BME280;54687;50.800;6.772;2022-12-13T09:43:19;61222.88;;;-144.06;58.46
11017;BME280;54687;50.800;6.772;2022-12-13T09:45:48;61214.50;;;-144.06;58.47
11017;BME280;54687;50.800;6.772;2022-12-13T09:48:16;61237.56;;;-144.06;58.05
11017;BME280;54687;50.800;6.772;2022-12-13T09:50:44;61201.91;;;-144.06;57.57
11017;BME280;54687;50.800;6.772;2022-12-13T09:53:13;61216.59;;;-144.06;57.49
11017;BME280;54687;50.800;6.772;2022-12-13T09:55:43;61235.47;;;-144.06;57.33
11017;BME280;54687;50.800;6.772;2022-12-13T09:58:18;61193.53;;;-144.06;57.49
11017;BME280;54687;50.800;6.772;2022-12-13T10:00:47;61218.69;;;-144.06;57.01
11017;BME280;54687;50.800;6.772;2022-12-13T10:03:15;61218.69;;;-144.06;56.75
11017;BME280;54687;50.800;6.772;2022-12-13T10:05:44;61183.06;;;-144.06;56.65
11017;BME280;54687;50.800;6.772;2022-12-13T10:08:13;61210.31;;;-144.06;56.58
11017;BME280;54687;50.800;6.772;2022-12-13T10:10:42;61201.91;;;-144.06;56.27
11017;BME280;54687;50.800;6.772;2022-12-13T10:13:14;61193.53;;;-144.06;56.46
11017;BME280;54687;50.800;6.772;2022-12-13T10:15:45;61193.53;;;-144.06;56.40
11017;BME280;54687;50.800;6.772;2022-12-13T10:18:19;61252.22;;;-144.06;55.94
11017;BME280;54687;50.800;6.772;2022-12-13T10:20:48;61237.56;;;-144.06;55.89
11017;BME280;54687;50.800;6.772;2022-12-13T10:23:16;61214.50;;;-144.06;55.87
11017;BME280;54687;50.800;6.772;2022-12-13T10:25:46;61220.78;;;-144.06;55.98
11017;BME280;54687;50.800;6.772;2022-12-13T10:28:16;61206.09;;;-144.06;55.48
11017;BME280;54687;50.800;6.772;2022-12-13T10:30:43;61250.13;;;-144.06;55.08
11017;BME280;54687;50.800;6.772;2022-12-13T10:33:20;61214.50;;;-144.06;54.79
11017;BME280;54687;50.800;6.772;2022-12-13T10:36:01;61243.84;;;-144.06;54.91
11017;BME280;54687;50.800;6.772;2022-12-13T10:38:34;61189.34;;;-144.06;54.76
11017;BME280;54687;50.800;6.772;2022-12-13T10:41:01;61180.97;;;-144.06;54.36
11017;BME280;54687;50.800;6.772;2022-12-13T10:43:28;61199.81;;;-144.06;54.13
11017;BME280;54687;50.800;6.772;2022-12-13T10:45:58;61222.88;;;-144.06;54.24
11017;BME280;54687;50.800;6.772;2022-12-13T10:48:33;61210.31;;;-144.06;53.96
11017;BME280;54687;50.800;6.772;2022-12-13T10:51:02;61248.03;;;-144.06;53.81
11017;BME280;54687;50.800;6.772;2022-12-13T10:53:34;61197.72;;;-144.06;53.87
11017;BME280;54687;50.800;6.772;2022-12-13T10:56:04;61235.47;;;-144.06;53.49
11017;BME280;54687;50.800;6.772;2022-12-13T10:58:36;61222.88;;;-144.06;53.52
11017;BME280;54687;50.800;6.772;2022-12-13T11:01:09;61201.91;;;-144.06;53.24
11017;BME280;54687;50.800;6.772;2022-12-13T11:03:40;61220.78;;;-144.06;53.02
11017;BME280;54687;50.800;6.772;2022-12-13T11:06:12;61189.34;;;-144.06;52.58
11017;BME280;54687;50.800;6.772;2022-12-13T11:08:41;61201.91;;;-144.06;52.93
11017;BME280;54687;50.800;6.772;2022-12-13T11:11:08;61180.97;;;-144.06;52.67
11017;BME280;54687;50.800;6.772;2022-12-13T11:13:37;61243.84;;;-144.06;52.58
11017;BME280;54687;50.800;6.772;2022-12-13T11:16:20;61235.47;;;-144.06;52.78
11017;BME280;54687;50.800;6.772;2022-12-13T11:18:51;61214.50;;;-144.06;52.78
11017;BME280;54687;50.800;6.772;2022-12-13T11:21:23;61191.44;;;-144.06;52.61
11017;BME280;54687;50.800;6.772;2022-12-13T11:23:53;61189.34;;;-144.06;52.52
11017;BME280;54687;50.800;6.772;2022-12-13T11:26:23;61216.59;;;-144.06;52.98
11017;BME280;54687;50.800;6.772;2022-12-13T11:29:04;61227.06;;;-144.06;52.58
11017;BME280;54687;50.800;6.772;2022-12-13T11:31:39;61187.25;;;-144.06;52.89
11017;BME280;54687;50.800;6.772;2022-12-13T11:34:17;61197.72;;;-144.06;52.10
11017;BME280;54687;50.800;6.772;2022-12-13T11:36:49;61206.09;;;-144.06;52.03
11017;BME280;54687;50.800;6.772;2022-12-13T11:39:26;61172.56;;;-144.06;52.00
11017;BME280;54687;50.800;6.772;2022-12-13T11:41:57;61187.25;;;-144.06;51.97
11017;BME280;54687;50.800;6.772;2022-12-13T11:44:35;61245.94;;;-144.06;51.68
11017;BME280;54687;50.800;6.772;2022-12-13T11:47:06;61206.09;;;-144.06;51.49
11017;BME280;54687;50.800;6.772;2022-12-13T11:49:40;61218.69;;;-144.06;51.01
11017;BME280;54687;50.800;6.772;2022-12-13T11:52:13;61193.53;;;-144.06;50.65
11017;BME280;54687;50.800;6.772;2022-12-13T11:54:53;61197.72;;;-144.06;50.75
11017;BME280;54687;50.800;6.772;2022-12-13T11:57:32;61210.31;;;-144.06;50.45
11017;BME280;54687;50.800;6.772;2022-12-13T12:00:05;61206.09;;;-144.06;50.34
11017;BME280;54687;50.800;6.772;2022-12-13T12:02:38;61180.97;;;-144.06;50.13
11017;BME280;54687;50.800;6.772;2022-12-13T12:05:24;61222.88;;;-144.06;50.23
11017;BME280;54687;50.800;6.772;2022-12-13T12:07:55;61172.56;;;-144.06;50.14
11017;BME280;54687;50.800;6.772;2022-12-13T12:10:29;61197.72;;;-144.06;50.16
11017;BME280;54687;50.800;6.772;2022-12-13T12:13:04;61206.09;;;-144.06;50.19
11017;BME280;54687;50.800;6.772;2022-12-13T12:15:37;61210.31;;;-144.06;50.28
11017;BME280;54687;50.800;6.772;2022-12-13T12:18:10;61206.09;;;-144.06;49.93
11017;BME280;54687;50.800;6.772;2022-12-13T12:20:45;61204.00;;;-144.06;50.08
11017;BME280;54687;50.800;6.772;2022-12-13T12:23:25;61222.88;;;-144.06;49.38
11017;BME280;54687;50.800;6.772;2022-12-13T12:26:05;61193.53;;;-144.06;49.23
11017;BME280;54687;50.800;6.772;2022-12-13T12:28:41;61199.81;;;-144.06;49.35
11017;BME280;54687;50.800;6.772;2022-12-13T12:31:20;61220.78;;;-144.06;49.65
11017;BME280;54687;50.800;6.772;2022-12-13T12:33:59;61172.56;;;-144.06;50.06
11017;BME280;54687;50.800;6.772;2022-12-13T12:36:52;61191.44;;;-144.06;50.23
11017;BME280;54687;50.800;6.772;2022-12-13T12:39:32;61180.97;;;-144.06;50.65
11017;BME280;54687;50.800;6.772;2022-12-13T12:42:13;61197.72;;;-144.06;50.39
11017;BME280;54687;50.800;6.772;2022-12-13T12:45:03;61168.38;;;-144.06;50.39
11017;BME280;54687;50.800;6.772;2022-12-13T12:47:40;61243.84;;;-144.06;50.28
11017;BME280;54687;50.800;6.772;2022-12-13T12:50:17;61204.00;;;-144.06;50.16
11017;BME280;54687;50.800;6.772;2022-12-13T12:53:08;61168.38;;;-144.06;49.59